Nearby METAR Reports

 

LFTH - Hyeres/Le Palyve, France
Distance from station: OSO 12km
Mise jour: 24/04/2018 00:30
clair
clair
 Wind from varies
Vent: varies 4 km/h
Temprature: 17°C
Point de rose: 14°C
Humidit: 83%
Baromtre: 1017 hPa
Rsum: clair
Visibility: greater than 10 km
2018/04/23 22:30 LFTH 232230Z AUTO VRB02KT CAVOK 17/14 Q1017 NOSIG
LFMC - Le Luc/Le Cannet, France
Distance from station: NNE 26km
Mise jour: 24/04/2018 00:30

 Wind from OSO
Vent: OSO 9 km/h
Temprature: 19°C
Point de rose: 13°C
Humidit: 68%
Baromtre: 1017 hPa
Visibility: 10 km
2018/04/23 22:30 LFMC 232230Z AUTO 25005KT 190V280 9999 ////// 19/13 Q1017